createdAt,value
2018-12-18T00:01:55.846Z,75.98
2018-12-18T00:04:23.308Z,75.14
2018-12-18T00:06:51.072Z,75.00
2018-12-18T00:09:18.560Z,75.54
2018-12-18T00:11:46.015Z,76.12
2018-12-18T00:14:13.535Z,76.57
2018-12-18T00:16:40.969Z,76.67
2018-12-18T00:19:08.490Z,76.37
2018-12-18T00:21:35.985Z,76.35
2018-12-18T00:24:03.463Z,76.74
2018-12-18T00:26:30.935Z,75.88
2018-12-18T00:28:58.417Z,75.94
2018-12-18T00:31:25.883Z,76.09
2018-12-18T00:33:53.364Z,77.93
2018-12-18T00:36:20.846Z,77.66
2018-12-18T00:38:48.333Z,75.46
2018-12-18T00:41:15.813Z,75.79
2018-12-18T00:43:43.273Z,75.18
2018-12-18T00:46:10.746Z,76.03
2018-12-18T00:48:38.238Z,76.33
2018-12-18T00:51:05.736Z,76.32
2018-12-18T00:53:33.346Z,75.87
2018-12-18T00:56:02.045Z,76.31
2018-12-18T00:58:29.518Z,76.34
2018-12-18T01:00:56.977Z,76.18
2018-12-18T01:03:24.451Z,75.71
2018-12-18T01:05:52.045Z,75.56
2018-12-18T01:08:19.645Z,75.71
2018-12-18T01:10:47.105Z,76.97
2018-12-18T01:13:14.685Z,75.72
2018-12-18T01:15:42.163Z,75.25
2018-12-18T01:18:09.606Z,75.43
2018-12-18T01:20:37.098Z,74.81
2018-12-18T01:23:04.604Z,75.60
2018-12-18T01:25:32.055Z,75.81
2018-12-18T01:27:59.524Z,75.74
2018-12-18T01:30:26.991Z,75.83
2018-12-18T01:32:54.425Z,75.69
2018-12-18T01:35:21.889Z,75.27
2018-12-18T01:37:49.365Z,75.16
2018-12-18T01:40:16.851Z,75.52
2018-12-18T01:42:44.304Z,74.97
2018-12-18T01:45:11.789Z,75.54
2018-12-18T01:47:39.239Z,75.76
2018-12-18T01:50:06.891Z,74.87
2018-12-18T01:52:34.380Z,73.97
2018-12-18T01:55:03.887Z,73.48
2018-12-18T01:57:31.442Z,73.96
2018-12-18T01:59:58.916Z,74.24
2018-12-18T02:02:26.373Z,74.65
2018-12-18T02:04:53.844Z,75.20
2018-12-18T02:07:21.324Z,75.58
2018-12-18T02:09:48.786Z,75.41
2018-12-18T02:12:16.284Z,75.08
2018-12-18T02:14:43.719Z,75.24
2018-12-18T02:17:11.217Z,75.27
2018-12-18T02:19:38.667Z,75.10
2018-12-18T02:22:06.105Z,76.39
2018-12-18T02:24:33.582Z,75.47
2018-12-18T02:27:01.034Z,73.65
2018-12-18T02:29:28.516Z,74.77
2018-12-18T02:31:56.008Z,74.94
2018-12-18T02:34:23.467Z,75.71
2018-12-18T02:36:50.982Z,76.75
2018-12-18T02:39:18.460Z,76.50
2018-12-18T02:41:45.925Z,76.27
2018-12-18T02:44:13.381Z,76.18
2018-12-18T02:46:40.855Z,76.16
2018-12-18T02:49:08.317Z,75.42
2018-12-18T02:51:35.889Z,75.97
2018-12-18T02:54:03.396Z,75.82
2018-12-18T02:56:30.838Z,75.96
2018-12-18T02:58:58.410Z,78.77
2018-12-18T03:01:25.896Z,75.61
2018-12-18T03:03:53.367Z,74.09
2018-12-18T03:06:20.817Z,75.08
2018-12-18T03:08:48.325Z,73.88
2018-12-18T03:11:17.786Z,74.88
2018-12-18T03:13:45.270Z,75.26
2018-12-18T03:16:12.711Z,75.05
2018-12-18T03:18:40.796Z,75.23
2018-12-18T03:21:08.235Z,75.29
2018-12-18T03:23:35.686Z,74.69
2018-12-18T03:26:03.154Z,74.78
2018-12-18T03:28:30.631Z,74.72
2018-12-18T03:30:58.077Z,74.69
2018-12-18T03:33:25.566Z,75.28
2018-12-18T03:35:53.006Z,74.53
2018-12-18T03:38:20.485Z,73.99
2018-12-18T03:40:47.958Z,73.74
2018-12-18T03:43:15.420Z,74.05
2018-12-18T03:45:42.969Z,73.43
2018-12-18T03:48:10.547Z,74.07
2018-12-18T03:50:38.016Z,73.94
2018-12-18T03:53:05.474Z,74.20
2018-12-18T03:55:32.970Z,74.95
2018-12-18T03:58:00.443Z,74.59
2018-12-18T04:00:27.917Z,74.30
2018-12-18T04:02:55.380Z,73.88
2018-12-18T04:05:22.845Z,73.97
2018-12-18T04:07:50.348Z,74.44
2018-12-18T04:10:17.829Z,77.64
2018-12-18T04:12:45.295Z,74.56
2018-12-18T04:15:13.339Z,73.77
2018-12-18T04:17:40.804Z,72.18
2018-12-18T04:20:08.269Z,73.01
2018-12-18T04:22:35.756Z,73.20
2018-12-18T04:25:03.313Z,74.33
2018-12-18T04:27:30.759Z,74.04
2018-12-18T04:29:58.231Z,74.12
2018-12-18T04:32:25.694Z,73.91
2018-12-18T04:34:53.163Z,74.15
2018-12-18T04:37:21.080Z,73.65
2018-12-18T04:39:48.520Z,74.49
2018-12-18T04:42:16.166Z,74.36
2018-12-18T04:44:43.786Z,74.68
2018-12-18T04:47:11.221Z,75.08
2018-12-18T04:49:38.676Z,73.33
2018-12-18T04:52:06.150Z,73.04
2018-12-18T04:54:33.619Z,72.99
2018-12-18T04:57:01.074Z,73.65
2018-12-18T04:59:28.528Z,74.83
2018-12-18T05:01:55.982Z,75.34
2018-12-18T05:04:24.441Z,74.97
2018-12-18T05:06:51.875Z,74.35
2018-12-18T05:09:19.350Z,74.92
2018-12-18T05:11:46.772Z,74.55
2018-12-18T05:14:14.271Z,74.13
2018-12-18T05:16:41.720Z,73.70
2018-12-18T05:19:09.218Z,73.74
2018-12-18T05:21:36.682Z,74.42
2018-12-18T05:24:04.206Z,75.41
2018-12-18T05:26:31.691Z,73.00
2018-12-18T05:28:59.152Z,72.30
2018-12-18T05:31:26.614Z,73.16
2018-12-18T05:33:54.067Z,75.43
2018-12-18T05:36:21.545Z,75.42
2018-12-18T05:38:48.981Z,75.56
2018-12-18T05:41:16.460Z,75.23
2018-12-18T05:43:43.910Z,74.80
2018-12-18T05:46:11.400Z,74.73
2018-12-18T05:48:38.838Z,74.76
2018-12-18T05:51:06.330Z,74.38
2018-12-18T05:53:33.797Z,74.26
2018-12-18T05:56:01.247Z,74.42
2018-12-18T05:58:28.692Z,78.30
2018-12-18T06:00:56.177Z,74.79
2018-12-18T06:03:23.657Z,73.47
2018-12-18T06:05:51.105Z,73.32
2018-12-18T06:08:18.812Z,74.65
2018-12-18T06:10:46.281Z,75.32
2018-12-18T06:13:13.730Z,75.26
2018-12-18T06:15:41.187Z,75.40
2018-12-18T06:18:08.627Z,74.85
2018-12-18T06:20:36.226Z,74.46
2018-12-18T06:23:03.767Z,74.96
2018-12-18T06:25:31.335Z,74.50
2018-12-18T06:27:58.814Z,74.26
2018-12-18T06:30:26.261Z,73.96
2018-12-18T06:32:53.758Z,75.60
2018-12-18T06:35:21.205Z,76.76
2018-12-18T06:37:48.662Z,74.26
2018-12-18T06:40:16.139Z,73.74
2018-12-18T06:42:43.585Z,74.31
2018-12-18T06:45:11.059Z,74.12
2018-12-18T06:47:38.545Z,74.85
2018-12-18T06:50:06.202Z,75.39
2018-12-18T06:52:34.227Z,74.85
2018-12-18T06:55:01.710Z,75.04
2018-12-18T06:57:29.167Z,75.18
2018-12-18T06:59:56.650Z,75.01
2018-12-18T07:02:24.103Z,74.69
2018-12-18T07:04:51.701Z,74.17
2018-12-18T07:07:19.180Z,73.84
2018-12-18T07:09:46.680Z,75.70
2018-12-18T07:12:14.120Z,74.57
2018-12-18T07:14:41.606Z,73.14
2018-12-18T07:17:09.057Z,72.48
2018-12-18T07:19:36.560Z,72.98
2018-12-18T07:22:04.006Z,73.03
2018-12-18T07:24:31.491Z,73.90
2018-12-18T07:26:58.941Z,73.96
2018-12-18T07:29:26.396Z,74.04
2018-12-18T07:31:53.850Z,73.60
2018-12-18T07:34:22.116Z,73.47
2018-12-18T07:36:49.585Z,72.95
2018-12-18T07:39:17.064Z,72.90
2018-12-18T07:41:44.551Z,73.34
2018-12-18T07:44:11.996Z,73.54
2018-12-18T07:46:39.462Z,76.59
2018-12-18T07:49:06.960Z,74.67
2018-12-18T07:51:34.426Z,73.03
2018-12-18T07:54:01.916Z,73.58
2018-12-18T07:56:29.405Z,74.03
2018-12-18T07:58:56.872Z,73.94
2018-12-18T08:01:24.337Z,74.73
2018-12-18T08:03:51.776Z,74.48
2018-12-18T08:06:19.225Z,74.08
2018-12-18T08:08:46.708Z,74.67
2018-12-18T08:11:14.150Z,74.41
2018-12-18T08:13:41.620Z,74.05
2018-12-18T08:16:09.072Z,74.03
2018-12-18T08:18:36.568Z,73.88
2018-12-18T08:21:04.002Z,73.79
2018-12-18T08:23:31.501Z,76.94
2018-12-18T08:25:59.763Z,73.44
2018-12-18T08:28:27.211Z,73.19
2018-12-18T08:30:54.759Z,72.25
2018-12-18T08:33:22.296Z,72.05
2018-12-18T08:35:49.770Z,72.50
2018-12-18T08:38:17.250Z,73.06
2018-12-18T08:40:44.712Z,71.81
2018-12-18T08:43:12.192Z,70.65
2018-12-18T08:45:39.665Z,70.52
2018-12-18T08:48:07.127Z,71.32
2018-12-18T08:50:34.610Z,71.17
2018-12-18T08:53:02.072Z,71.18
2018-12-18T08:55:29.558Z,71.05
2018-12-18T08:57:57.106Z,72.31
2018-12-18T09:00:24.583Z,71.27
2018-12-18T09:02:52.165Z,70.63
2018-12-18T09:05:19.720Z,71.16
2018-12-18T09:07:47.194Z,70.36
2018-12-18T09:10:14.652Z,70.06
2018-12-18T09:12:42.138Z,70.74
2018-12-18T09:15:15.156Z,71.34
2018-12-18T09:17:45.654Z,71.55
2018-12-18T09:20:13.489Z,71.18
2018-12-18T09:22:41.062Z,70.92
2018-12-18T09:25:08.711Z,70.68
2018-12-18T09:27:36.181Z,70.80
2018-12-18T09:30:06.515Z,70.50
2018-12-18T09:32:33.950Z,70.50
2018-12-18T09:35:01.424Z,71.65
2018-12-18T09:37:28.869Z,69.64
2018-12-18T09:39:56.364Z,69.35
2018-12-18T09:42:29.456Z,69.28
2018-12-18T09:44:56.915Z,69.45
2018-12-18T09:47:24.392Z,69.21
2018-12-18T09:49:51.873Z,69.04
2018-12-18T09:52:19.340Z,69.17
2018-12-18T09:54:46.809Z,68.90
2018-12-18T10:00:20.333Z,67.93
2018-12-18T10:02:47.783Z,68.46
2018-12-18T10:05:15.251Z,68.66
2018-12-18T10:07:42.742Z,68.71
2018-12-18T10:10:10.263Z,69.73
2018-12-18T10:12:45.652Z,67.86
2018-12-18T10:15:13.466Z,67.39
2018-12-18T10:17:40.903Z,66.78
2018-12-18T10:20:08.500Z,67.05
2018-12-18T10:22:36.004Z,67.39
2018-12-18T10:25:03.629Z,66.81
2018-12-18T10:27:31.201Z,67.78
2018-12-18T10:29:58.659Z,67.41
2018-12-18T10:32:26.269Z,66.84
2018-12-18T10:34:53.793Z,66.80
2018-12-18T10:37:21.300Z,66.88
2018-12-18T10:39:48.750Z,66.62
2018-12-18T10:42:16.271Z,66.87
2018-12-18T10:44:43.759Z,67.66
2018-12-18T10:47:11.190Z,66.97
2018-12-18T10:49:38.680Z,65.50
2018-12-18T10:52:06.123Z,65.05
2018-12-18T10:54:33.580Z,64.75
2018-12-18T10:57:01.025Z,63.89
2018-12-18T10:59:28.498Z,65.35
2018-12-18T11:02:00.352Z,65.17
2018-12-18T11:04:27.823Z,65.65
2018-12-18T11:06:55.269Z,66.10
2018-12-18T11:09:22.717Z,65.88
2018-12-18T11:11:50.196Z,65.66
2018-12-18T11:14:17.653Z,65.17
2018-12-18T11:16:45.140Z,65.54
2018-12-18T11:19:12.595Z,65.79
2018-12-18T11:21:40.055Z,67.56
2018-12-18T11:24:07.535Z,65.47
2018-12-18T11:26:34.976Z,64.58
2018-12-18T11:29:02.441Z,65.20
2018-12-18T11:31:29.923Z,64.04
2018-12-18T11:33:57.399Z,64.70
2018-12-18T11:36:24.886Z,64.90
2018-12-18T11:38:52.339Z,65.28
2018-12-18T11:41:19.852Z,65.24
2018-12-18T11:43:47.325Z,65.28
2018-12-18T11:46:14.806Z,65.23
2018-12-18T11:48:42.280Z,64.87
2018-12-18T11:51:09.731Z,63.64
2018-12-18T11:53:37.213Z,65.07
2018-12-18T11:56:04.863Z,65.57
2018-12-18T11:58:33.180Z,64.53
2018-12-18T12:01:00.650Z,64.08
2018-12-18T12:03:28.104Z,64.14
2018-12-18T12:05:55.561Z,63.06
2018-12-18T12:08:23.045Z,63.37
2018-12-18T12:10:50.940Z,63.78
2018-12-18T12:13:18.413Z,63.92
2018-12-18T12:15:45.914Z,64.23
2018-12-18T12:18:13.334Z,64.32
2018-12-18T12:20:40.789Z,63.96
2018-12-18T12:23:08.254Z,63.83
2018-12-18T12:25:35.733Z,62.93
2018-12-18T12:28:05.135Z,63.53
2018-12-18T12:30:33.204Z,64.11
2018-12-18T12:33:00.708Z,65.15
2018-12-18T12:35:28.200Z,62.99
2018-12-18T12:37:55.745Z,62.12
2018-12-18T12:40:23.303Z,62.30
2018-12-18T12:42:50.754Z,62.07
2018-12-18T12:45:18.189Z,61.96
2018-12-18T12:47:48.023Z,61.80
2018-12-18T12:50:15.696Z,62.60
2018-12-18T12:52:43.174Z,62.98
2018-12-18T12:55:10.657Z,62.58
2018-12-18T12:57:38.114Z,62.08
2018-12-18T13:00:08.003Z,62.64
2018-12-18T13:02:35.450Z,62.81
2018-12-18T13:05:03.013Z,62.53
2018-12-18T13:07:30.493Z,67.50
2018-12-18T13:09:58.046Z,62.97
2018-12-18T13:12:25.529Z,62.29
2018-12-18T13:14:53.000Z,62.60
2018-12-18T13:17:20.465Z,62.22
2018-12-18T13:19:47.902Z,62.66
2018-12-18T13:22:15.381Z,63.12
2018-12-18T13:24:42.824Z,63.44
2018-12-18T13:27:10.288Z,62.21
2018-12-18T13:29:38.059Z,63.00
2018-12-18T13:32:06.717Z,62.92
2018-12-18T13:34:34.179Z,62.70
2018-12-18T13:37:01.651Z,62.74
2018-12-18T13:39:29.131Z,63.02
2018-12-18T13:41:56.628Z,63.44
2018-12-18T13:44:24.106Z,64.44
2018-12-18T13:46:51.560Z,62.96
2018-12-18T13:49:19.029Z,62.45
2018-12-18T13:51:46.494Z,63.31
2018-12-18T13:54:13.956Z,63.67
2018-12-18T13:56:41.526Z,63.54
2018-12-18T13:59:08.993Z,63.43
2018-12-18T14:01:36.541Z,63.98
2018-12-18T14:04:03.998Z,64.39
2018-12-18T14:06:31.482Z,64.06
2018-12-18T14:08:58.912Z,64.52
2018-12-18T14:11:26.349Z,64.08
2018-12-18T14:13:53.826Z,64.44
2018-12-18T14:16:21.286Z,64.31
2018-12-18T14:18:48.792Z,65.44
2018-12-18T14:21:16.244Z,64.53
2018-12-18T14:23:43.708Z,63.55
2018-12-18T14:26:11.190Z,63.23
2018-12-18T14:28:38.664Z,63.63
2018-12-18T14:31:06.111Z,63.77
2018-12-18T14:33:33.641Z,64.35
2018-12-18T14:36:01.107Z,64.38
2018-12-18T14:38:28.551Z,64.67
2018-12-18T14:40:56.013Z,64.62
2018-12-18T14:43:23.461Z,64.46
2018-12-18T14:45:50.967Z,65.01
2018-12-18T14:48:18.411Z,64.86
2018-12-18T14:50:45.929Z,65.31
2018-12-18T14:53:13.716Z,66.15
2018-12-18T14:55:41.172Z,65.73
2018-12-18T14:58:08.661Z,65.47
2018-12-18T15:00:36.177Z,65.42
2018-12-18T15:03:03.671Z,64.85
2018-12-18T15:05:31.213Z,65.95
2018-12-18T15:07:58.707Z,65.88
2018-12-18T15:10:26.308Z,66.94
2018-12-18T15:12:53.766Z,67.00
2018-12-18T15:15:21.235Z,67.11
2018-12-18T15:17:48.702Z,67.40
2018-12-18T15:20:16.217Z,67.52
2018-12-18T15:22:43.632Z,66.99
2018-12-18T15:25:11.108Z,67.58
2018-12-18T15:27:38.584Z,67.51
2018-12-18T15:30:07.259Z,71.36
2018-12-18T15:32:34.779Z,68.16
2018-12-18T15:35:02.253Z,67.08
2018-12-18T15:37:29.704Z,66.61
2018-12-18T15:39:57.186Z,67.29
2018-12-18T15:42:24.639Z,67.38
2018-12-18T15:44:52.111Z,66.96
2018-12-18T15:47:19.568Z,68.10
2018-12-18T15:49:47.058Z,68.09
2018-12-18T15:52:14.774Z,68.22
2018-12-18T15:54:42.243Z,68.10
2018-12-18T15:57:09.694Z,67.71
2018-12-18T15:59:37.159Z,67.82
2018-12-18T16:02:04.770Z,68.48
2018-12-18T16:04:32.267Z,69.14
2018-12-18T16:06:59.710Z,69.11
2018-12-18T16:09:27.203Z,67.95
2018-12-18T16:11:55.151Z,67.32
2018-12-18T16:14:22.756Z,67.44
2018-12-18T16:16:50.210Z,67.08
2018-12-18T16:19:17.978Z,67.90
2018-12-18T16:21:45.789Z,68.20
2018-12-18T16:24:14.050Z,67.46
2018-12-18T16:26:41.498Z,68.25
2018-12-18T16:29:08.949Z,68.33
2018-12-18T16:31:36.545Z,68.02
2018-12-18T16:34:04.071Z,67.84
2018-12-18T16:36:31.565Z,67.97
2018-12-18T16:38:59.004Z,68.39
2018-12-18T16:41:26.474Z,70.42
2018-12-18T16:43:53.932Z,68.37
2018-12-18T16:46:21.409Z,67.16
2018-12-18T16:48:48.848Z,66.47
2018-12-18T16:51:16.331Z,66.75
2018-12-18T16:53:43.778Z,68.05
2018-12-18T16:56:11.269Z,68.80
2018-12-18T16:58:38.747Z,69.43
2018-12-18T17:01:06.244Z,69.39
2018-12-18T17:03:33.813Z,69.18
2018-12-18T17:06:01.391Z,68.60
2018-12-18T17:08:28.844Z,69.14
2018-12-18T17:10:56.367Z,68.27
2018-12-18T17:13:23.804Z,69.22
2018-12-18T17:15:51.270Z,69.10
2018-12-18T17:18:18.734Z,69.83
2018-12-18T17:20:46.168Z,67.62
2018-12-18T17:23:13.652Z,67.72
2018-12-18T17:25:41.115Z,67.17
2018-12-18T17:28:08.609Z,67.47
2018-12-18T17:30:36.184Z,67.33
2018-12-18T17:33:03.667Z,67.47
2018-12-18T17:35:31.125Z,67.91
2018-12-18T17:37:58.623Z,67.40
2018-12-18T17:40:26.050Z,67.02
2018-12-18T17:42:53.485Z,67.29
2018-12-18T17:45:21.098Z,66.59
2018-12-18T17:47:48.552Z,67.13
2018-12-18T17:50:16.041Z,67.08
2018-12-18T17:52:43.503Z,73.49
2018-12-18T17:55:10.968Z,68.26
2018-12-18T17:57:38.455Z,66.62
2018-12-18T18:00:07.018Z,66.30
2018-12-18T18:02:34.514Z,66.50
2018-12-18T18:05:02.011Z,67.04
2018-12-18T18:07:29.468Z,66.59
2018-12-18T18:09:56.983Z,66.38
2018-12-18T18:12:29.976Z,66.03
2018-12-18T18:14:54.229Z,66.40
2018-12-18T18:17:21.745Z,66.00
2018-12-18T18:19:49.237Z,66.41
2018-12-18T18:22:16.753Z,66.37
2018-12-18T18:24:44.188Z,66.49
2018-12-18T18:27:11.685Z,67.22
2018-12-18T18:29:39.134Z,68.17
2018-12-18T18:32:06.660Z,66.18
2018-12-18T18:34:34.145Z,65.60
2018-12-18T18:37:01.651Z,65.37
2018-12-18T18:39:29.134Z,65.73
2018-12-18T18:41:56.605Z,66.50
2018-12-18T18:44:24.067Z,65.79
2018-12-18T18:46:51.593Z,66.19
2018-12-18T18:49:19.029Z,65.92
2018-12-18T18:51:46.549Z,65.80
2018-12-18T18:54:14.055Z,65.41
2018-12-18T18:56:41.497Z,66.11
2018-12-18T18:59:08.955Z,65.44
2018-12-18T19:01:36.444Z,66.40
2018-12-18T19:04:04.524Z,68.28
2018-12-18T19:06:32.012Z,66.75
2018-12-18T19:08:59.443Z,65.66
2018-12-18T19:11:26.922Z,65.50
2018-12-18T19:13:54.422Z,65.44
2018-12-18T19:16:21.890Z,65.23
2018-12-18T19:18:49.363Z,65.21
2018-12-18T19:21:16.858Z,64.98
2018-12-18T19:23:44.326Z,65.77
2018-12-18T19:26:11.828Z,65.46
2018-12-18T19:28:39.328Z,64.77
2018-12-18T19:31:06.793Z,64.96
2018-12-18T19:33:36.962Z,64.96
2018-12-18T19:36:04.092Z,64.92
2018-12-18T19:38:31.562Z,65.36
2018-12-18T19:40:59.070Z,66.41
2018-12-18T19:43:26.642Z,64.56
2018-12-18T19:45:54.201Z,64.50
2018-12-18T19:48:22.061Z,64.15
2018-12-18T19:50:49.536Z,64.50
2018-12-18T19:53:17.049Z,64.72
2018-12-18T19:55:44.521Z,64.48
2018-12-18T19:58:11.974Z,64.53
2018-12-18T20:00:39.488Z,64.55
2018-12-18T20:03:07.062Z,63.57
2018-12-18T20:05:34.539Z,64.38
2018-12-18T20:08:02.010Z,63.87
2018-12-18T20:10:29.492Z,64.25
2018-12-18T20:12:59.018Z,64.18
2018-12-18T20:15:26.522Z,66.48
2018-12-18T20:17:54.008Z,64.33
2018-12-18T20:20:21.484Z,63.76
2018-12-18T20:22:48.968Z,63.77
2018-12-18T20:25:16.483Z,63.75
2018-12-18T20:27:43.946Z,63.87
2018-12-18T20:30:12.103Z,63.45
2018-12-18T20:32:39.745Z,63.46
2018-12-18T20:35:07.188Z,63.72
2018-12-18T20:37:34.672Z,63.57
2018-12-18T20:40:02.276Z,63.36
2018-12-18T20:42:29.771Z,63.82
2018-12-18T20:44:57.236Z,63.78
2018-12-18T20:47:24.683Z,63.39
2018-12-18T20:49:52.183Z,63.25
2018-12-18T20:52:19.648Z,63.26
2018-12-18T20:54:47.147Z,62.78
2018-12-18T20:57:14.652Z,62.86
2018-12-18T20:59:42.112Z,62.81
2018-12-18T21:02:09.593Z,62.73
2018-12-18T21:04:38.010Z,62.48
2018-12-18T21:07:05.670Z,63.07
2018-12-18T21:09:33.107Z,62.66
2018-12-18T21:12:00.598Z,62.79
2018-12-18T21:14:28.066Z,62.62
2018-12-18T21:16:55.588Z,62.79
2018-12-18T21:19:23.060Z,62.82
2018-12-18T21:21:50.539Z,62.44
2018-12-18T21:24:18.019Z,62.03
2018-12-18T21:26:45.501Z,66.53
2018-12-18T21:29:12.975Z,63.52
2018-12-18T21:31:40.510Z,62.19
2018-12-18T21:34:07.999Z,61.52
2018-12-18T21:36:35.441Z,61.40
2018-12-18T21:39:02.958Z,60.97
2018-12-18T21:41:31.087Z,61.12
2018-12-18T21:43:58.558Z,61.76
2018-12-18T21:46:26.026Z,61.58
2018-12-18T21:48:53.482Z,60.55
2018-12-18T21:51:20.960Z,61.12
2018-12-18T21:53:48.418Z,61.49
2018-12-18T21:56:15.885Z,60.46
2018-12-18T21:58:43.361Z,61.03
2018-12-18T22:01:10.862Z,61.59
2018-12-18T22:03:38.364Z,61.23
2018-12-18T22:06:05.797Z,60.70
2018-12-18T22:08:36.801Z,60.67
2018-12-18T22:11:02.762Z,59.51
2018-12-18T22:13:30.248Z,59.06
2018-12-18T22:15:57.708Z,59.90
2018-12-18T22:18:25.250Z,60.43
2018-12-18T22:20:52.753Z,60.79
2018-12-18T22:23:20.227Z,60.92
2018-12-18T22:25:47.678Z,60.22
2018-12-18T22:28:15.152Z,59.11
2018-12-18T22:30:42.592Z,58.99
2018-12-18T22:33:10.086Z,59.66
2018-12-18T22:35:37.585Z,59.80
2018-12-18T22:38:05.026Z,64.30
2018-12-18T22:40:32.490Z,59.75
2018-12-18T22:43:00.467Z,59.20
2018-12-18T22:45:28.072Z,59.41
2018-12-18T22:47:55.515Z,59.60
2018-12-18T22:50:23.016Z,58.66
2018-12-18T22:52:50.465Z,57.89
2018-12-18T22:55:17.977Z,59.13
2018-12-18T22:57:45.415Z,59.20
2018-12-18T23:00:15.255Z,59.33
2018-12-18T23:02:42.731Z,58.81
2018-12-18T23:05:10.303Z,58.91
2018-12-18T23:07:37.740Z,58.06
2018-12-18T23:10:05.914Z,58.40
2018-12-18T23:12:33.392Z,60.47
2018-12-18T23:15:00.836Z,58.76
2018-12-18T23:17:28.319Z,57.55
2018-12-18T23:19:55.770Z,57.39
2018-12-18T23:22:23.270Z,57.73
2018-12-18T23:24:50.818Z,58.16
2018-12-18T23:27:19.712Z,57.96
2018-12-18T23:29:47.395Z,57.79
2018-12-18T23:32:14.891Z,56.55
2018-12-18T23:34:42.375Z,57.15
2018-12-18T23:37:10.169Z,57.81
2018-12-18T23:39:37.672Z,57.04
2018-12-18T23:42:05.114Z,56.75
2018-12-18T23:44:32.590Z,57.52
2018-12-18T23:47:00.021Z,57.30
2018-12-18T23:49:27.511Z,58.04
2018-12-18T23:51:54.982Z,56.83
2018-12-18T23:54:22.650Z,56.45
2018-12-18T23:56:50.123Z,56.57
2018-12-18T23:59:17.580Z,56.66
